sensor_id;sensor_type;location;lat;lon;timestamp;P1;durP1;ratioP1;P2;durP2;ratioP2
51190;SDS011;37253;48.736;9.294;2022-07-23T00:01:47;6.45;;;5.38;;
51190;SDS011;37253;48.736;9.294;2022-07-23T00:03:48;6.35;;;5.20;;
51190;SDS011;37253;48.736;9.294;2022-07-23T00:05:48;6.30;;;5.70;;
51190;SDS011;37253;48.736;9.294;2022-07-23T00:07:48;5.88;;;5.28;;
51190;SDS011;37253;48.736;9.294;2022-07-23T00:09:49;8.32;;;5.20;;
51190;SDS011;37253;48.736;9.294;2022-07-23T00:11:49;6.78;;;4.78;;
51190;SDS011;37253;48.736;9.294;2022-07-23T00:13:49;5.50;;;5.00;;
51190;SDS011;37253;48.736;9.294;2022-07-23T00:15:50;9.15;;;4.85;;
51190;SDS011;37253;48.736;9.294;2022-07-23T00:17:50;6.88;;;5.03;;
51190;SDS011;37253;48.736;9.294;2022-07-23T00:19:51;6.32;;;5.20;;
51190;SDS011;37253;48.736;9.294;2022-07-23T00:21:52;5.32;;;4.72;;
51190;SDS011;37253;48.736;9.294;2022-07-23T00:23:53;7.18;;;4.85;;
51190;SDS011;37253;48.736;9.294;2022-07-23T00:25:53;5.15;;;4.65;;
51190;SDS011;37253;48.736;9.294;2022-07-23T00:27:53;5.93;;;4.68;;
51190;SDS011;37253;48.736;9.294;2022-07-23T00:29:54;5.97;;;4.43;;
51190;SDS011;37253;48.736;9.294;2022-07-23T00:31:54;5.80;;;4.85;;
51190;SDS011;37253;48.736;9.294;2022-07-23T00:33:54;6.25;;;4.88;;
51190;SDS011;37253;48.736;9.294;2022-07-23T00:35:56;4.90;;;4.47;;
51190;SDS011;37253;48.736;9.294;2022-07-23T00:37:57;6.80;;;4.57;;
51190;SDS011;37253;48.736;9.294;2022-07-23T00:39:58;6.25;;;4.30;;
51190;SDS011;37253;48.736;9.294;2022-07-23T00:41:58;4.97;;;4.30;;
51190;SDS011;37253;48.736;9.294;2022-07-23T00:44:17;5.15;;;4.65;;
51190;SDS011;37253;48.736;9.294;2022-07-23T00:46:22;6.00;;;4.47;;
51190;SDS011;37253;48.736;9.294;2022-07-23T00:48:22;7.05;;;3.72;;
51190;SDS011;37253;48.736;9.294;2022-07-23T00:50:23;4.57;;;4.13;;
51190;SDS011;37253;48.736;9.294;2022-07-23T00:52:23;4.88;;;3.97;;
51190;SDS011;37253;48.736;9.294;2022-07-23T00:54:24;6.10;;;4.38;;
51190;SDS011;37253;48.736;9.294;2022-07-23T00:56:25;4.93;;;4.15;;
51190;SDS011;37253;48.736;9.294;2022-07-23T00:58:26;4.78;;;4.38;;
51190;SDS011;37253;48.736;9.294;2022-07-23T01:00:26;5.20;;;4.28;;
51190;SDS011;37253;48.736;9.294;2022-07-23T01:02:27;5.35;;;3.80;;
51190;SDS011;37253;48.736;9.294;2022-07-23T01:04:27;3.95;;;3.10;;
51190;SDS011;37253;48.736;9.294;2022-07-23T01:06:27;4.20;;;3.80;;
51190;SDS011;37253;48.736;9.294;2022-07-23T01:08:28;4.22;;;3.80;;
51190;SDS011;37253;48.736;9.294;2022-07-23T01:10:28;5.00;;;4.38;;
51190;SDS011;37253;48.736;9.294;2022-07-23T01:12:31;4.10;;;3.63;;
51190;SDS011;37253;48.736;9.294;2022-07-23T01:14:32;3.88;;;3.47;;
51190;SDS011;37253;48.736;9.294;2022-07-23T01:16:32;4.20;;;3.70;;
51190;SDS011;37253;48.736;9.294;2022-07-23T01:18:32;3.97;;;3.40;;
51190;SDS011;37253;48.736;9.294;2022-07-23T01:20:33;4.35;;;3.40;;
51190;SDS011;37253;48.736;9.294;2022-07-23T01:22:33;3.67;;;3.13;;
51190;SDS011;37253;48.736;9.294;2022-07-23T01:24:34;3.30;;;2.80;;
51190;SDS011;37253;48.736;9.294;2022-07-23T01:26:34;3.60;;;3.30;;
51190;SDS011;37253;48.736;9.294;2022-07-23T01:28:35;5.32;;;2.97;;
51190;SDS011;37253;48.736;9.294;2022-07-23T01:30:35;2.78;;;2.58;;
51190;SDS011;37253;48.736;9.294;2022-07-23T01:32:36;3.28;;;2.97;;
51190;SDS011;37253;48.736;9.294;2022-07-23T01:34:36;3.90;;;3.20;;
51190;SDS011;37253;48.736;9.294;2022-07-23T01:36:37;4.65;;;3.20;;
51190;SDS011;37253;48.736;9.294;2022-07-23T01:38:37;3.15;;;2.63;;
51190;SDS011;37253;48.736;9.294;2022-07-23T01:40:37;4.32;;;2.60;;
51190;SDS011;37253;48.736;9.294;2022-07-23T01:42:38;3.40;;;2.92;;
51190;SDS011;37253;48.736;9.294;2022-07-23T01:44:38;3.85;;;2.75;;
51190;SDS011;37253;48.736;9.294;2022-07-23T01:46:39;3.05;;;2.42;;
51190;SDS011;37253;48.736;9.294;2022-07-23T01:48:39;3.28;;;2.60;;
51190;SDS011;37253;48.736;9.294;2022-07-23T01:50:39;3.78;;;3.10;;
51190;SDS011;37253;48.736;9.294;2022-07-23T01:52:40;3.95;;;3.10;;
51190;SDS011;37253;48.736;9.294;2022-07-23T01:54:40;3.83;;;2.95;;
51190;SDS011;37253;48.736;9.294;2022-07-23T01:56:40;4.13;;;3.33;;
51190;SDS011;37253;48.736;9.294;2022-07-23T01:58:41;2.83;;;2.53;;
51190;SDS011;37253;48.736;9.294;2022-07-23T02:00:41;3.15;;;2.85;;
51190;SDS011;37253;48.736;9.294;2022-07-23T02:02:42;3.03;;;2.80;;
51190;SDS011;37253;48.736;9.294;2022-07-23T02:04:42;3.00;;;2.80;;
51190;SDS011;37253;48.736;9.294;2022-07-23T02:06:42;4.05;;;2.60;;
51190;SDS011;37253;48.736;9.294;2022-07-23T02:08:43;5.07;;;3.35;;
51190;SDS011;37253;48.736;9.294;2022-07-23T02:10:43;3.42;;;3.13;;
51190;SDS011;37253;48.736;9.294;2022-07-23T02:12:44;3.00;;;2.80;;
51190;SDS011;37253;48.736;9.294;2022-07-23T02:14:44;3.53;;;3.22;;
51190;SDS011;37253;48.736;9.294;2022-07-23T02:16:44;5.18;;;3.08;;
51190;SDS011;37253;48.736;9.294;2022-07-23T02:18:45;2.90;;;2.70;;
51190;SDS011;37253;48.736;9.294;2022-07-23T02:20:46;3.08;;;2.78;;
51190;SDS011;37253;48.736;9.294;2022-07-23T02:22:47;4.18;;;2.95;;
51190;SDS011;37253;48.736;9.294;2022-07-23T02:24:47;3.13;;;2.45;;
51190;SDS011;37253;48.736;9.294;2022-07-23T02:26:48;3.13;;;2.83;;
51190;SDS011;37253;48.736;9.294;2022-07-23T02:28:48;3.95;;;2.83;;
51190;SDS011;37253;48.736;9.294;2022-07-23T02:30:48;5.10;;;3.22;;
51190;SDS011;37253;48.736;9.294;2022-07-23T02:32:49;3.53;;;3.05;;
51190;SDS011;37253;48.736;9.294;2022-07-23T02:34:49;4.90;;;3.20;;
51190;SDS011;37253;48.736;9.294;2022-07-23T02:36:50;3.67;;;3.22;;
51190;SDS011;37253;48.736;9.294;2022-07-23T02:38:50;3.80;;;3.10;;
51190;SDS011;37253;48.736;9.294;2022-07-23T02:40:50;2.97;;;2.72;;
51190;SDS011;37253;48.736;9.294;2022-07-23T02:42:51;3.78;;;3.03;;
51190;SDS011;37253;48.736;9.294;2022-07-23T02:44:51;3.40;;;3.10;;
51190;SDS011;37253;48.736;9.294;2022-07-23T02:46:52;3.40;;;2.80;;
51190;SDS011;37253;48.736;9.294;2022-07-23T02:48:52;5.22;;;3.40;;
51190;SDS011;37253;48.736;9.294;2022-07-23T02:50:52;4.40;;;2.80;;
51190;SDS011;37253;48.736;9.294;2022-07-23T02:52:53;4.05;;;3.53;;
51190;SDS011;37253;48.736;9.294;2022-07-23T02:54:53;4.15;;;3.15;;
51190;SDS011;37253;48.736;9.294;2022-07-23T02:56:53;6.95;;;3.60;;
51190;SDS011;37253;48.736;9.294;2022-07-23T02:58:53;4.68;;;3.00;;
51190;SDS011;37253;48.736;9.294;2022-07-23T03:00:54;6.20;;;3.22;;
51190;SDS011;37253;48.736;9.294;2022-07-23T03:02:54;4.82;;;3.70;;
51190;SDS011;37253;48.736;9.294;2022-07-23T03:04:54;3.70;;;3.10;;
51190;SDS011;37253;48.736;9.294;2022-07-23T03:06:55;3.65;;;3.35;;
51190;SDS011;37253;48.736;9.294;2022-07-23T03:08:55;4.38;;;2.97;;
51190;SDS011;37253;48.736;9.294;2022-07-23T03:10:55;3.60;;;2.90;;
51190;SDS011;37253;48.736;9.294;2022-07-23T03:12:56;3.40;;;3.10;;
51190;SDS011;37253;48.736;9.294;2022-07-23T03:14:56;4.65;;;3.15;;
51190;SDS011;37253;48.736;9.294;2022-07-23T03:16:56;2.75;;;2.55;;
51190;SDS011;37253;48.736;9.294;2022-07-23T03:18:57;4.35;;;3.08;;
51190;SDS011;37253;48.736;9.294;2022-07-23T03:20:57;5.05;;;2.60;;
51190;SDS011;37253;48.736;9.294;2022-07-23T03:22:57;5.47;;;2.90;;
51190;SDS011;37253;48.736;9.294;2022-07-23T03:24:58;5.30;;;2.92;;
51190;SDS011;37253;48.736;9.294;2022-07-23T03:26:58;4.47;;;3.00;;
51190;SDS011;37253;48.736;9.294;2022-07-23T03:28:58;3.72;;;3.10;;
51190;SDS011;37253;48.736;9.294;2022-07-23T03:31:01;4.97;;;3.00;;
51190;SDS011;37253;48.736;9.294;2022-07-23T03:33:01;6.40;;;2.65;;
51190;SDS011;37253;48.736;9.294;2022-07-23T03:35:01;5.20;;;2.80;;
51190;SDS011;37253;48.736;9.294;2022-07-23T03:37:02;9.10;;;3.30;;
51190;SDS011;37253;48.736;9.294;2022-07-23T03:39:02;2.92;;;2.63;;
51190;SDS011;37253;48.736;9.294;2022-07-23T03:41:03;5.45;;;2.53;;
51190;SDS011;37253;48.736;9.294;2022-07-23T03:43:03;3.30;;;3.00;;
51190;SDS011;37253;48.736;9.294;2022-07-23T03:45:04;3.22;;;2.90;;
51190;SDS011;37253;48.736;9.294;2022-07-23T03:47:05;3.15;;;2.65;;
51190;SDS011;37253;48.736;9.294;2022-07-23T03:49:06;3.05;;;2.85;;
51190;SDS011;37253;48.736;9.294;2022-07-23T03:51:06;4.00;;;2.83;;
51190;SDS011;37253;48.736;9.294;2022-07-23T03:53:07;3.35;;;2.78;;
51190;SDS011;37253;48.736;9.294;2022-07-23T03:55:08;4.07;;;3.10;;
51190;SDS011;37253;48.736;9.294;2022-07-23T03:57:08;5.03;;;3.15;;
51190;SDS011;37253;48.736;9.294;2022-07-23T03:59:09;5.03;;;2.60;;
51190;SDS011;37253;48.736;9.294;2022-07-23T04:01:10;3.00;;;2.70;;
51190;SDS011;37253;48.736;9.294;2022-07-23T04:03:10;4.93;;;3.10;;
51190;SDS011;37253;48.736;9.294;2022-07-23T04:05:11;3.05;;;2.75;;
51190;SDS011;37253;48.736;9.294;2022-07-23T04:07:11;3.65;;;3.33;;
51190;SDS011;37253;48.736;9.294;2022-07-23T04:09:11;4.90;;;3.00;;
51190;SDS011;37253;48.736;9.294;2022-07-23T04:11:12;4.97;;;2.90;;
51190;SDS011;37253;48.736;9.294;2022-07-23T04:13:12;4.18;;;3.20;;
51190;SDS011;37253;48.736;9.294;2022-07-23T04:15:13;3.53;;;2.92;;
51190;SDS011;37253;48.736;9.294;2022-07-23T04:17:13;4.05;;;3.05;;
51190;SDS011;37253;48.736;9.294;2022-07-23T04:19:13;3.25;;;3.05;;
51190;SDS011;37253;48.736;9.294;2022-07-23T04:21:14;3.53;;;2.95;;
51190;SDS011;37253;48.736;9.294;2022-07-23T04:23:14;4.47;;;3.08;;
51190;SDS011;37253;48.736;9.294;2022-07-23T04:25:14;3.35;;;3.05;;
51190;SDS011;37253;48.736;9.294;2022-07-23T04:27:16;3.22;;;2.90;;
51190;SDS011;37253;48.736;9.294;2022-07-23T04:29:17;3.10;;;2.80;;
51190;SDS011;37253;48.736;9.294;2022-07-23T04:31:17;4.88;;;3.20;;
51190;SDS011;37253;48.736;9.294;2022-07-23T04:33:17;3.58;;;2.85;;
51190;SDS011;37253;48.736;9.294;2022-07-23T04:35:18;5.90;;;3.05;;
51190;SDS011;37253;48.736;9.294;2022-07-23T04:37:18;5.53;;;3.47;;
51190;SDS011;37253;48.736;9.294;2022-07-23T04:39:19;4.35;;;2.80;;
51190;SDS011;37253;48.736;9.294;2022-07-23T04:41:19;5.40;;;3.55;;
51190;SDS011;37253;48.736;9.294;2022-07-23T04:43:20;3.80;;;3.00;;
51190;SDS011;37253;48.736;9.294;2022-07-23T04:45:20;3.80;;;3.20;;
51190;SDS011;37253;48.736;9.294;2022-07-23T04:47:20;5.32;;;3.38;;
51190;SDS011;37253;48.736;9.294;2022-07-23T04:49:21;5.28;;;3.13;;
51190;SDS011;37253;48.736;9.294;2022-07-23T04:51:21;5.30;;;3.17;;
51190;SDS011;37253;48.736;9.294;2022-07-23T04:53:21;3.42;;;3.15;;
51190;SDS011;37253;48.736;9.294;2022-07-23T04:55:22;3.75;;;3.40;;
51190;SDS011;37253;48.736;9.294;2022-07-23T04:57:22;3.80;;;2.85;;
51190;SDS011;37253;48.736;9.294;2022-07-23T04:59:23;3.00;;;2.70;;
51190;SDS011;37253;48.736;9.294;2022-07-23T05:01:23;3.33;;;2.97;;
51190;SDS011;37253;48.736;9.294;2022-07-23T05:03:23;4.45;;;3.20;;
51190;SDS011;37253;48.736;9.294;2022-07-23T05:05:24;4.85;;;3.05;;
51190;SDS011;37253;48.736;9.294;2022-07-23T05:07:24;5.28;;;3.10;;
51190;SDS011;37253;48.736;9.294;2022-07-23T05:09:25;3.08;;;2.85;;
51190;SDS011;37253;48.736;9.294;2022-07-23T05:11:25;5.53;;;3.28;;
51190;SDS011;37253;48.736;9.294;2022-07-23T05:13:25;4.00;;;3.60;;
51190;SDS011;37253;48.736;9.294;2022-07-23T05:15:26;3.60;;;3.30;;
51190;SDS011;37253;48.736;9.294;2022-07-23T05:17:26;4.15;;;3.25;;
51190;SDS011;37253;48.736;9.294;2022-07-23T05:19:26;4.82;;;3.25;;
51190;SDS011;37253;48.736;9.294;2022-07-23T05:21:27;4.47;;;4.03;;
51190;SDS011;37253;48.736;9.294;2022-07-23T05:23:27;5.95;;;3.67;;
51190;SDS011;37253;48.736;9.294;2022-07-23T05:25:28;4.57;;;3.70;;
51190;SDS011;37253;48.736;9.294;2022-07-23T05:27:28;4.30;;;3.20;;
51190;SDS011;37253;48.736;9.294;2022-07-23T05:29:29;4.18;;;3.78;;
51190;SDS011;37253;48.736;9.294;2022-07-23T05:31:29;4.72;;;3.50;;
51190;SDS011;37253;48.736;9.294;2022-07-23T05:33:29;3.95;;;3.55;;
51190;SDS011;37253;48.736;9.294;2022-07-23T05:35:30;5.05;;;3.58;;
51190;SDS011;37253;48.736;9.294;2022-07-23T05:37:30;4.22;;;3.83;;
51190;SDS011;37253;48.736;9.294;2022-07-23T05:39:31;4.93;;;4.07;;
51190;SDS011;37253;48.736;9.294;2022-07-23T05:41:31;4.72;;;4.32;;
51190;SDS011;37253;48.736;9.294;2022-07-23T05:43:31;7.38;;;3.85;;
51190;SDS011;37253;48.736;9.294;2022-07-23T05:45:32;5.53;;;3.97;;
51190;SDS011;37253;48.736;9.294;2022-07-23T05:47:39;5.30;;;3.35;;
51190;SDS011;37253;48.736;9.294;2022-07-23T05:49:47;6.57;;;4.10;;
51190;SDS011;37253;48.736;9.294;2022-07-23T05:51:47;4.82;;;4.43;;
51190;SDS011;37253;48.736;9.294;2022-07-23T05:53:47;6.75;;;4.10;;
51190;SDS011;37253;48.736;9.294;2022-07-23T05:55:48;5.30;;;4.00;;
51190;SDS011;37253;48.736;9.294;2022-07-23T05:57:49;5.82;;;3.78;;
51190;SDS011;37253;48.736;9.294;2022-07-23T05:59:49;6.07;;;4.47;;
51190;SDS011;37253;48.736;9.294;2022-07-23T06:01:49;4.43;;;4.00;;
51190;SDS011;37253;48.736;9.294;2022-07-23T06:03:50;5.22;;;4.15;;
51190;SDS011;37253;48.736;9.294;2022-07-23T06:05:50;6.10;;;5.10;;
51190;SDS011;37253;48.736;9.294;2022-07-23T06:07:50;5.05;;;4.30;;
51190;SDS011;37253;48.736;9.294;2022-07-23T06:09:51;4.72;;;4.18;;
51190;SDS011;37253;48.736;9.294;2022-07-23T06:11:51;6.57;;;4.38;;
51190;SDS011;37253;48.736;9.294;2022-07-23T06:13:51;4.80;;;4.40;;
51190;SDS011;37253;48.736;9.294;2022-07-23T06:15:52;7.18;;;5.00;;
51190;SDS011;37253;48.736;9.294;2022-07-23T06:17:52;5.75;;;4.20;;
51190;SDS011;37253;48.736;9.294;2022-07-23T06:19:53;5.53;;;4.60;;
51190;SDS011;37253;48.736;9.294;2022-07-23T06:21:53;6.60;;;4.50;;
51190;SDS011;37253;48.736;9.294;2022-07-23T06:23:53;4.80;;;4.20;;
51190;SDS011;37253;48.736;9.294;2022-07-23T06:25:54;4.82;;;4.20;;
51190;SDS011;37253;48.736;9.294;2022-07-23T06:27:54;7.57;;;4.22;;
51190;SDS011;37253;48.736;9.294;2022-07-23T06:29:54;5.43;;;4.45;;
51190;SDS011;37253;48.736;9.294;2022-07-23T06:31:55;6.30;;;4.75;;
51190;SDS011;37253;48.736;9.294;2022-07-23T06:33:55;4.72;;;4.25;;
51190;SDS011;37253;48.736;9.294;2022-07-23T06:35:55;5.53;;;4.55;;
51190;SDS011;37253;48.736;9.294;2022-07-23T06:37:56;7.20;;;4.90;;
51190;SDS011;37253;48.736;9.294;2022-07-23T06:39:56;8.23;;;4.88;;
51190;SDS011;37253;48.736;9.294;2022-07-23T06:41:56;6.57;;;4.63;;
51190;SDS011;37253;48.736;9.294;2022-07-23T06:43:57;7.20;;;4.95;;
51190;SDS011;37253;48.736;9.294;2022-07-23T06:45:57;4.95;;;4.45;;
51190;SDS011;37253;48.736;9.294;2022-07-23T06:47:57;6.78;;;4.85;;
51190;SDS011;37253;48.736;9.294;2022-07-23T06:49:58;5.53;;;4.80;;
51190;SDS011;37253;48.736;9.294;2022-07-23T06:51:58;7.47;;;4.47;;
51190;SDS011;37253;48.736;9.294;2022-07-23T06:53:59;10.05;;;4.70;;
51190;SDS011;37253;48.736;9.294;2022-07-23T06:55:59;6.50;;;4.95;;
51190;SDS011;37253;48.736;9.294;2022-07-23T06:57:59;7.60;;;4.90;;
51190;SDS011;37253;48.736;9.294;2022-07-23T06:59:59;7.20;;;4.85;;
51190;SDS011;37253;48.736;9.294;2022-07-23T07:02:00;7.45;;;5.07;;
51190;SDS011;37253;48.736;9.294;2022-07-23T07:04:00;10.15;;;5.65;;
51190;SDS011;37253;48.736;9.294;2022-07-23T07:06:00;6.53;;;5.43;;
51190;SDS011;37253;48.736;9.294;2022-07-23T07:08:02;6.53;;;5.30;;
51190;SDS011;37253;48.736;9.294;2022-07-23T07:10:03;8.27;;;5.50;;
51190;SDS011;37253;48.736;9.294;2022-07-23T07:12:04;7.70;;;5.45;;
51190;SDS011;37253;48.736;9.294;2022-07-23T07:14:04;11.90;;;6.03;;
51190;SDS011;37253;48.736;9.294;2022-07-23T07:16:05;8.13;;;6.15;;
51190;SDS011;37253;48.736;9.294;2022-07-23T07:18:05;8.32;;;6.43;;
51190;SDS011;37253;48.736;9.294;2022-07-23T07:20:06;19.13;;;6.63;;
51190;SDS011;37253;48.736;9.294;2022-07-23T07:22:06;9.70;;;5.65;;
51190;SDS011;37253;48.736;9.294;2022-07-23T07:24:07;25.67;;;7.68;;
51190;SDS011;37253;48.736;9.294;2022-07-23T07:26:07;60.65;;;11.73;;
51190;SDS011;37253;48.736;9.294;2022-07-23T07:28:08;122.78;;;20.48;;
51190;SDS011;37253;48.736;9.294;2022-07-23T07:30:08;197.73;;;38.67;;
51190;SDS011;37253;48.736;9.294;2022-07-23T07:32:09;112.90;;;22.08;;
51190;SDS011;37253;48.736;9.294;2022-07-23T07:34:10;49.78;;;12.60;;
51190;SDS011;37253;48.736;9.294;2022-07-23T07:36:10;39.80;;;10.00;;
51190;SDS011;37253;48.736;9.294;2022-07-23T07:38:10;24.55;;;9.43;;
51190;SDS011;37253;48.736;9.294;2022-07-23T07:40:11;16.92;;;6.63;;
51190;SDS011;37253;48.736;9.294;2022-07-23T07:42:11;15.90;;;6.82;;
51190;SDS011;37253;48.736;9.294;2022-07-23T07:44:11;14.93;;;6.30;;
51190;SDS011;37253;48.736;9.294;2022-07-23T07:46:12;14.30;;;6.07;;
51190;SDS011;37253;48.736;9.294;2022-07-23T07:48:12;18.10;;;6.95;;
51190;SDS011;37253;48.736;9.294;2022-07-23T07:50:12;13.85;;;5.97;;
51190;SDS011;37253;48.736;9.294;2022-07-23T07:52:13;13.45;;;6.03;;
51190;SDS011;37253;48.736;9.294;2022-07-23T07:54:13;11.50;;;6.15;;
51190;SDS011;37253;48.736;9.294;2022-07-23T07:56:13;12.00;;;6.00;;
51190;SDS011;37253;48.736;9.294;2022-07-23T07:58:14;10.35;;;5.47;;
51190;SDS011;37253;48.736;9.294;2022-07-23T08:00:14;11.30;;;5.78;;
51190;SDS011;37253;48.736;9.294;2022-07-23T08:02:15;9.77;;;5.60;;
51190;SDS011;37253;48.736;9.294;2022-07-23T08:04:15;9.85;;;5.80;;
51190;SDS011;37253;48.736;9.294;2022-07-23T08:06:16;13.18;;;5.07;;
51190;SDS011;37253;48.736;9.294;2022-07-23T08:08:16;9.65;;;5.35;;
51190;SDS011;37253;48.736;9.294;2022-07-23T08:10:16;8.80;;;4.70;;
51190;SDS011;37253;48.736;9.294;2022-07-23T08:12:17;10.27;;;5.55;;
51190;SDS011;37253;48.736;9.294;2022-07-23T08:14:17;7.43;;;5.85;;
51190;SDS011;37253;48.736;9.294;2022-07-23T08:16:18;6.75;;;4.68;;
51190;SDS011;37253;48.736;9.294;2022-07-23T08:18:18;7.45;;;5.43;;
51190;SDS011;37253;48.736;9.294;2022-07-23T08:20:20;8.80;;;5.03;;
51190;SDS011;37253;48.736;9.294;2022-07-23T08:22:21;8.63;;;5.20;;
51190;SDS011;37253;48.736;9.294;2022-07-23T08:24:22;6.28;;;5.60;;
51190;SDS011;37253;48.736;9.294;2022-07-23T08:26:22;7.85;;;4.95;;
51190;SDS011;37253;48.736;9.294;2022-07-23T08:28:22;6.22;;;5.10;;
51190;SDS011;37253;48.736;9.294;2022-07-23T08:30:23;6.40;;;5.53;;
51190;SDS011;37253;48.736;9.294;2022-07-23T08:32:23;7.32;;;5.15;;
51190;SDS011;37253;48.736;9.294;2022-07-23T08:34:24;9.23;;;5.28;;
51190;SDS011;37253;48.736;9.294;2022-07-23T08:36:24;7.80;;;5.10;;
51190;SDS011;37253;48.736;9.294;2022-07-23T08:38:27;13.85;;;5.93;;
51190;SDS011;37253;48.736;9.294;2022-07-23T08:40:29;11.98;;;5.60;;
51190;SDS011;37253;48.736;9.294;2022-07-23T08:42:32;15.85;;;5.97;;
51190;SDS011;37253;48.736;9.294;2022-07-23T08:44:35;10.18;;;5.97;;
51190;SDS011;37253;48.736;9.294;2022-07-23T08:46:35;15.25;;;5.63;;
51190;SDS011;37253;48.736;9.294;2022-07-23T08:48:36;15.48;;;6.10;;
51190;SDS011;37253;48.736;9.294;2022-07-23T08:50:36;7.47;;;5.53;;
51190;SDS011;37253;48.736;9.294;2022-07-23T08:52:37;9.50;;;5.80;;
51190;SDS011;37253;48.736;9.294;2022-07-23T08:54:38;12.07;;;6.03;;
51190;SDS011;37253;48.736;9.294;2022-07-23T08:56:39;8.85;;;5.85;;
51190;SDS011;37253;48.736;9.294;2022-07-23T08:58:40;8.27;;;5.32;;
51190;SDS011;37253;48.736;9.294;2022-07-23T09:00:41;10.55;;;5.75;;
51190;SDS011;37253;48.736;9.294;2022-07-23T09:02:42;8.40;;;5.97;;
51190;SDS011;37253;48.736;9.294;2022-07-23T09:04:43;13.65;;;6.32;;
51190;SDS011;37253;48.736;9.294;2022-07-23T09:06:43;11.30;;;6.22;;
51190;SDS011;37253;48.736;9.294;2022-07-23T09:08:43;10.75;;;6.13;;
51190;SDS011;37253;48.736;9.294;2022-07-23T09:12:56;10.98;;;5.70;;
51190;SDS011;37253;48.736;9.294;2022-07-23T09:14:56;12.32;;;5.80;;
51190;SDS011;37253;48.736;9.294;2022-07-23T09:17:10;7.65;;;5.38;;
51190;SDS011;37253;48.736;9.294;2022-07-23T09:19:11;7.72;;;5.45;;
51190;SDS011;37253;48.736;9.294;2022-07-23T09:21:17;9.95;;;6.25;;
51190;SDS011;37253;48.736;9.294;2022-07-23T09:23:19;6.93;;;6.03;;
51190;SDS011;37253;48.736;9.294;2022-07-23T09:25:19;9.48;;;6.03;;
51190;SDS011;37253;48.736;9.294;2022-07-23T09:27:20;10.65;;;5.95;;
51190;SDS011;37253;48.736;9.294;2022-07-23T09:29:21;8.48;;;5.95;;
51190;SDS011;37253;48.736;9.294;2022-07-23T09:31:23;6.32;;;5.68;;
51190;SDS011;37253;48.736;9.294;2022-07-23T09:33:24;7.15;;;6.07;;
51190;SDS011;37253;48.736;9.294;2022-07-23T09:35:43;8.95;;;6.03;;
51190;SDS011;37253;48.736;9.294;2022-07-23T09:38:02;8.43;;;6.00;;
51190;SDS011;37253;48.736;9.294;2022-07-23T09:40:03;10.65;;;6.15;;
51190;SDS011;37253;48.736;9.294;2022-07-23T09:42:21;7.78;;;6.03;;
51190;SDS011;37253;48.736;9.294;2022-07-23T09:44:23;7.90;;;6.55;;
51190;SDS011;37253;48.736;9.294;2022-07-23T09:46:24;8.20;;;6.30;;
51190;SDS011;37253;48.736;9.294;2022-07-23T09:48:26;9.03;;;6.37;;
51190;SDS011;37253;48.736;9.294;2022-07-23T09:50:26;8.95;;;6.07;;
51190;SDS011;37253;48.736;9.294;2022-07-23T09:52:30;7.70;;;6.13;;
51190;SDS011;37253;48.736;9.294;2022-07-23T09:54:37;7.72;;;5.40;;
51190;SDS011;37253;48.736;9.294;2022-07-23T09:56:39;6.45;;;5.82;;
51190;SDS011;37253;48.736;9.294;2022-07-23T09:58:40;9.45;;;6.15;;
51190;SDS011;37253;48.736;9.294;2022-07-23T10:00:48;6.90;;;6.20;;
51190;SDS011;37253;48.736;9.294;2022-07-23T10:02:49;9.90;;;5.10;;
51190;SDS011;37253;48.736;9.294;2022-07-23T10:04:51;7.35;;;5.70;;
51190;SDS011;37253;48.736;9.294;2022-07-23T10:06:54;9.23;;;5.43;;
51190;SDS011;37253;48.736;9.294;2022-07-23T10:08:57;6.78;;;5.30;;
51190;SDS011;37253;48.736;9.294;2022-07-23T10:10:58;7.93;;;6.03;;
51190;SDS011;37253;48.736;9.294;2022-07-23T10:13:00;9.00;;;6.30;;
51190;SDS011;37253;48.736;9.294;2022-07-23T10:15:18;6.70;;;6.00;;
51190;SDS011;37253;48.736;9.294;2022-07-23T10:17:19;9.00;;;6.75;;
51190;SDS011;37253;48.736;9.294;2022-07-23T10:19:19;6.80;;;5.22;;
51190;SDS011;37253;48.736;9.294;2022-07-23T10:21:34;6.00;;;5.32;;
51190;SDS011;37253;48.736;9.294;2022-07-23T10:26:23;7.80;;;6.10;;
51190;SDS011;37253;48.736;9.294;2022-07-23T10:28:51;5.95;;;5.10;;
51190;SDS011;37253;48.736;9.294;2022-07-23T10:33:17;9.15;;;6.70;;
51190;SDS011;37253;48.736;9.294;2022-07-23T10:35:31;6.40;;;5.80;;
51190;SDS011;37253;48.736;9.294;2022-07-23T10:37:46;8.70;;;6.70;;
51190;SDS011;37253;48.736;9.294;2022-07-23T10:39:49;6.30;;;5.70;;
51190;SDS011;37253;48.736;9.294;2022-07-23T10:42:09;7.15;;;5.95;;
51190;SDS011;37253;48.736;9.294;2022-07-23T10:44:15;6.57;;;5.93;;
51190;SDS011;37253;48.736;9.294;2022-07-23T10:48:25;6.32;;;5.18;;
51190;SDS011;37253;48.736;9.294;2022-07-23T10:50:29;6.18;;;5.57;;
51190;SDS011;37253;48.736;9.294;2022-07-23T10:52:31;7.93;;;6.10;;
51190;SDS011;37253;48.736;9.294;2022-07-23T10:54:31;7.63;;;5.75;;
51190;SDS011;37253;48.736;9.294;2022-07-23T10:56:48;7.75;;;6.40;;
51190;SDS011;37253;48.736;9.294;2022-07-23T10:58:52;8.80;;;6.03;;
51190;SDS011;37253;48.736;9.294;2022-07-23T11:00:53;7.60;;;5.65;;
51190;SDS011;37253;48.736;9.294;2022-07-23T11:02:54;10.40;;;6.65;;
51190;SDS011;37253;48.736;9.294;2022-07-23T11:04:59;11.80;;;6.78;;
51190;SDS011;37253;48.736;9.294;2022-07-23T11:07:06;5.22;;;4.75;;
51190;SDS011;37253;48.736;9.294;2022-07-23T11:11:26;9.05;;;5.80;;
51190;SDS011;37253;48.736;9.294;2022-07-23T11:13:28;8.35;;;6.43;;
51190;SDS011;37253;48.736;9.294;2022-07-23T11:15:32;8.35;;;5.43;;
51190;SDS011;37253;48.736;9.294;2022-07-23T11:18:02;8.43;;;6.47;;
51190;SDS011;37253;48.736;9.294;2022-07-23T11:22:09;9.00;;;6.20;;
51190;SDS011;37253;48.736;9.294;2022-07-23T11:24:10;11.80;;;6.38;;
51190;SDS011;37253;48.736;9.294;2022-07-23T11:28:42;13.18;;;6.93;;
51190;SDS011;37253;48.736;9.294;2022-07-23T11:30:44;14.25;;;7.00;;
51190;SDS011;37253;48.736;9.294;2022-07-23T11:32:45;15.23;;;6.68;;
51190;SDS011;37253;48.736;9.294;2022-07-23T11:34:46;15.27;;;7.10;;
51190;SDS011;37253;48.736;9.294;2022-07-23T11:36:50;15.38;;;6.53;;
51190;SDS011;37253;48.736;9.294;2022-07-23T11:38:50;14.00;;;6.13;;
51190;SDS011;37253;48.736;9.294;2022-07-23T11:40:55;10.23;;;6.85;;
51190;SDS011;37253;48.736;9.294;2022-07-23T11:43:03;7.22;;;6.53;;
51190;SDS011;37253;48.736;9.294;2022-07-23T11:45:06;6.32;;;5.35;;
51190;SDS011;37253;48.736;9.294;2022-07-23T11:47:08;9.73;;;6.25;;
51190;SDS011;37253;48.736;9.294;2022-07-23T11:49:09;7.85;;;6.13;;
51190;SDS011;37253;48.736;9.294;2022-07-23T11:51:10;10.68;;;4.80;;
51190;SDS011;37253;48.736;9.294;2022-07-23T11:53:10;6.35;;;4.88;;
51190;SDS011;37253;48.736;9.294;2022-07-23T11:55:11;10.02;;;6.47;;
51190;SDS011;37253;48.736;9.294;2022-07-23T11:57:12;7.93;;;6.55;;
51190;SDS011;37253;48.736;9.294;2022-07-23T11:59:12;11.15;;;6.53;;
51190;SDS011;37253;48.736;9.294;2022-07-23T12:01:13;8.18;;;6.35;;
51190;SDS011;37253;48.736;9.294;2022-07-23T12:03:13;8.38;;;6.07;;
51190;SDS011;37253;48.736;9.294;2022-07-23T12:05:14;9.75;;;6.43;;
51190;SDS011;37253;48.736;9.294;2022-07-23T12:07:22;7.43;;;6.22;;
51190;SDS011;37253;48.736;9.294;2022-07-23T12:09:29;7.03;;;6.18;;
51190;SDS011;37253;48.736;9.294;2022-07-23T12:11:29;11.15;;;6.55;;
51190;SDS011;37253;48.736;9.294;2022-07-23T12:13:29;8.82;;;6.07;;
51190;SDS011;37253;48.736;9.294;2022-07-23T12:15:31;7.40;;;6.40;;
51190;SDS011;37253;48.736;9.294;2022-07-23T12:17:39;9.65;;;6.57;;
51190;SDS011;37253;48.736;9.294;2022-07-23T12:19:40;10.25;;;6.80;;
51190;SDS011;37253;48.736;9.294;2022-07-23T12:21:41;9.10;;;5.57;;
51190;SDS011;37253;48.736;9.294;2022-07-23T12:23:42;9.82;;;5.72;;
51190;SDS011;37253;48.736;9.294;2022-07-23T12:25:43;9.23;;;6.45;;
51190;SDS011;37253;48.736;9.294;2022-07-23T12:27:45;8.40;;;6.38;;